createdAt,value
2022-07-28T00:00:44.026Z,3.20
2022-07-28T00:03:10.792Z,3.10
2022-07-28T00:05:37.483Z,2.70
2022-07-28T00:08:04.496Z,3.70
2022-07-28T00:10:32.254Z,2.60
2022-07-28T00:13:00.029Z,2.70
2022-07-28T00:15:27.597Z,2.50
2022-07-28T00:17:54.310Z,3.07
2022-07-28T00:20:21.361Z,2.80
2022-07-28T00:22:48.152Z,3.10
2022-07-28T00:25:15.268Z,2.83
2022-07-28T00:27:42.029Z,3.80
2022-07-28T00:30:10.014Z,3.10
2022-07-28T00:32:37.696Z,3.10
2022-07-28T00:35:05.331Z,3.33
2022-07-28T00:37:34.897Z,3.10
2022-07-28T00:40:01.662Z,2.90
2022-07-28T00:42:28.345Z,3.30
2022-07-28T00:44:55.052Z,2.67
2022-07-28T00:47:21.859Z,3.03
2022-07-28T00:49:50.323Z,3.40
2022-07-28T00:52:18.362Z,3.50
2022-07-28T00:54:45.501Z,2.80
2022-07-28T00:57:12.400Z,2.77
2022-07-28T00:59:39.048Z,2.50
2022-07-28T01:02:08.681Z,2.83
2022-07-28T01:04:35.729Z,2.73
2022-07-28T01:07:08.588Z,3.17
2022-07-28T01:09:41.127Z,2.77
2022-07-28T01:12:25.957Z,3.17
2022-07-28T01:15:03.577Z,2.57
2022-07-28T01:17:44.914Z,3.33
2022-07-28T01:20:24.650Z,3.07
2022-07-28T01:23:09.964Z,3.13
2022-07-28T01:25:49.764Z,3.00
2022-07-28T01:28:50.066Z,2.90
2022-07-28T01:31:21.526Z,2.90
2022-07-28T01:33:52.869Z,3.10
2022-07-28T01:36:28.771Z,3.00
2022-07-28T01:38:57.030Z,2.70
2022-07-28T01:41:27.895Z,3.57
2022-07-28T01:44:02.831Z,2.90
2022-07-28T01:46:30.388Z,3.20
2022-07-28T01:48:58.566Z,2.80
2022-07-28T01:51:29.242Z,3.17
2022-07-28T01:53:57.850Z,3.00
2022-07-28T01:56:26.406Z,2.90
2022-07-28T01:58:55.742Z,3.63
2022-07-28T02:01:25.324Z,2.87
2022-07-28T02:03:54.576Z,3.57
2022-07-28T02:06:23.072Z,3.80
2022-07-28T02:08:53.086Z,2.93
2022-07-28T02:11:38.764Z,3.33
2022-07-28T02:14:08.345Z,4.40
2022-07-28T02:16:35.096Z,4.23
2022-07-28T02:19:03.710Z,6.27
2022-07-28T02:21:31.986Z,6.77
2022-07-28T02:23:59.847Z,5.33
2022-07-28T02:26:36.719Z,4.80
2022-07-28T02:29:06.516Z,8.10
2022-07-28T02:31:42.008Z,6.53
2022-07-28T02:34:12.509Z,7.50
2022-07-28T02:36:42.266Z,7.53
2022-07-28T02:39:23.521Z,7.00
2022-07-28T02:41:58.325Z,5.53
2022-07-28T02:44:31.858Z,5.57
2022-07-28T02:47:00.826Z,5.07
2022-07-28T02:49:33.820Z,5.40
2022-07-28T02:52:03.422Z,4.90
2022-07-28T02:54:32.812Z,4.93
2022-07-28T02:57:00.978Z,5.00
2022-07-28T02:59:28.837Z,4.63
2022-07-28T03:01:56.462Z,4.63
2022-07-28T03:04:43.235Z,4.00
2022-07-28T03:07:10.908Z,4.77
2022-07-28T03:09:46.730Z,4.90
2022-07-28T03:12:14.052Z,4.97
2022-07-28T03:14:41.653Z,5.20
2022-07-28T03:17:09.150Z,4.90
2022-07-28T03:19:36.631Z,5.40
2022-07-28T03:22:03.599Z,6.20
2022-07-28T03:24:35.436Z,5.93
2022-07-28T03:27:27.078Z,5.50
2022-07-28T03:30:07.445Z,7.63
2022-07-28T03:32:37.278Z,4.07
2022-07-28T03:35:06.344Z,5.20
2022-07-28T03:37:42.423Z,4.33
2022-07-28T03:40:11.493Z,4.07
2022-07-28T03:42:39.486Z,3.63
2022-07-28T03:45:07.008Z,3.47
2022-07-28T03:47:33.724Z,4.60
2022-07-28T03:50:00.369Z,4.20
2022-07-28T03:52:27.037Z,4.97
2022-07-28T03:54:53.997Z,4.20
2022-07-28T03:57:20.640Z,4.80
2022-07-28T03:59:47.266Z,5.67
2022-07-28T04:02:13.930Z,3.63
2022-07-28T04:04:40.629Z,4.70
2022-07-28T04:07:07.311Z,3.60
2022-07-28T04:09:34.706Z,3.83
2022-07-28T04:12:01.481Z,3.50
2022-07-28T04:14:28.126Z,3.73
2022-07-28T04:16:54.768Z,3.30
2022-07-28T04:19:21.433Z,3.70
2022-07-28T04:21:48.089Z,4.03
2022-07-28T04:24:15.236Z,3.73
2022-07-28T04:26:44.101Z,4.40
2022-07-28T04:29:11.048Z,4.33
2022-07-28T04:31:37.699Z,4.77
2022-07-28T04:34:04.415Z,3.60
2022-07-28T04:36:31.257Z,3.83
2022-07-28T04:38:59.378Z,3.80
2022-07-28T04:41:27.103Z,3.20
2022-07-28T04:43:53.766Z,3.63
2022-07-28T04:46:20.585Z,3.90
2022-07-28T04:48:47.438Z,3.43
2022-07-28T04:51:14.215Z,3.80
2022-07-28T04:53:41.061Z,4.10
2022-07-28T04:56:07.810Z,3.67
2022-07-28T04:58:34.570Z,3.50
2022-07-28T05:01:01.932Z,3.80
2022-07-28T05:03:32.719Z,3.20
2022-07-28T05:06:02.466Z,3.50
2022-07-28T05:08:29.100Z,2.97
2022-07-28T05:10:56.153Z,2.57
2022-07-28T05:13:23.542Z,2.53
2022-07-28T05:15:51.108Z,2.60
2022-07-28T05:18:17.754Z,2.60
2022-07-28T05:24:28.410Z,3.00
2022-07-28T05:26:57.880Z,2.97
2022-07-28T05:29:24.730Z,2.30
2022-07-28T05:31:51.523Z,2.47
2022-07-28T05:34:18.369Z,3.00
2022-07-28T05:36:45.071Z,2.27
2022-07-28T05:39:11.765Z,1.87
2022-07-28T05:41:38.412Z,2.20
2022-07-28T05:44:05.276Z,2.47
2022-07-28T05:46:32.375Z,2.40
2022-07-28T05:48:59.145Z,1.80
2022-07-28T05:51:26.725Z,1.90
2022-07-28T05:53:53.384Z,2.17
2022-07-28T05:56:21.798Z,2.10
2022-07-28T05:58:48.886Z,2.30
2022-07-28T06:01:15.575Z,1.93
2022-07-28T06:03:42.741Z,1.83
2022-07-28T06:06:15.611Z,1.67
2022-07-28T06:08:44.632Z,1.80
2022-07-28T06:11:22.275Z,2.33
2022-07-28T06:13:50.352Z,1.80
2022-07-28T06:16:17.240Z,1.67
2022-07-28T06:18:44.065Z,2.70
2022-07-28T06:21:10.966Z,2.20
2022-07-28T06:23:37.622Z,1.57
2022-07-28T06:26:04.269Z,2.33
2022-07-28T06:28:32.409Z,2.00
2022-07-28T06:30:59.078Z,2.33
2022-07-28T06:33:25.811Z,1.90
2022-07-28T06:35:52.476Z,2.30
2022-07-28T06:38:20.586Z,2.20
2022-07-28T06:40:48.076Z,2.20
2022-07-28T06:43:14.860Z,1.80
2022-07-28T06:45:41.571Z,2.30
2022-07-28T06:48:08.742Z,2.30
2022-07-28T06:50:39.162Z,2.20
2022-07-28T06:53:06.050Z,2.53
2022-07-28T06:55:35.436Z,3.27
2022-07-28T06:58:03.862Z,1.90
2022-07-28T07:00:30.883Z,2.30
2022-07-28T07:02:57.693Z,2.40
2022-07-28T07:05:25.800Z,2.60
2022-07-28T07:07:52.389Z,2.60
2022-07-28T07:10:19.100Z,2.50
2022-07-28T07:12:45.925Z,2.73
2022-07-28T07:15:12.681Z,2.83
2022-07-28T07:17:39.397Z,2.83
2022-07-28T07:20:06.849Z,2.67
2022-07-28T07:22:33.570Z,3.00
2022-07-28T07:25:18.517Z,3.23
2022-07-28T07:27:45.907Z,3.20
2022-07-28T07:30:14.094Z,3.73
2022-07-28T07:32:41.352Z,3.37
2022-07-28T07:35:08.661Z,3.60
2022-07-28T07:37:35.673Z,4.70
2022-07-28T07:40:04.729Z,4.20
2022-07-28T07:42:32.279Z,5.03
2022-07-28T07:44:58.982Z,3.17
2022-07-28T07:47:25.624Z,4.10
2022-07-28T07:49:52.383Z,4.97
2022-07-28T07:52:19.414Z,5.97
2022-07-28T07:54:46.230Z,6.40
2022-07-28T07:57:13.171Z,6.67
2022-07-28T07:59:40.110Z,6.80
2022-07-28T08:02:06.956Z,6.27
2022-07-28T08:04:38.398Z,6.60
2022-07-28T08:07:06.615Z,7.00
2022-07-28T08:09:34.526Z,6.93
2022-07-28T08:12:01.734Z,7.10
2022-07-28T08:14:28.522Z,7.17
2022-07-28T08:16:56.738Z,6.67
2022-07-28T08:19:23.629Z,7.27
2022-07-28T08:21:51.115Z,7.40
2022-07-28T08:24:33.671Z,7.43
2022-07-28T08:27:05.076Z,7.53
2022-07-28T08:29:31.933Z,8.00
2022-07-28T08:31:58.615Z,8.83
2022-07-28T08:34:26.381Z,7.37
2022-07-28T08:36:58.770Z,6.90
2022-07-28T08:39:25.477Z,7.20
2022-07-28T08:41:55.627Z,7.47
2022-07-28T08:44:30.833Z,7.83
2022-07-28T08:46:58.875Z,7.97
2022-07-28T08:49:27.792Z,7.33
2022-07-28T08:51:58.568Z,7.87
2022-07-28T08:54:28.270Z,6.77
2022-07-28T08:56:57.747Z,6.90
2022-07-28T08:59:25.525Z,6.00
2022-07-28T09:01:57.382Z,6.73
2022-07-28T09:04:25.964Z,5.87
2022-07-28T09:06:53.177Z,5.90
2022-07-28T09:09:21.633Z,4.90
2022-07-28T09:11:48.309Z,5.83
2022-07-28T09:14:15.338Z,4.97
2022-07-28T09:16:42.406Z,5.60
2022-07-28T09:19:09.051Z,5.27
2022-07-28T09:21:35.910Z,5.67
2022-07-28T09:24:02.736Z,5.37
2022-07-28T09:26:29.410Z,5.07
2022-07-28T09:28:58.653Z,4.73
2022-07-28T09:31:27.838Z,5.80
2022-07-28T09:33:54.536Z,4.20
2022-07-28T09:36:21.611Z,4.53
2022-07-28T09:38:48.399Z,3.90
2022-07-28T09:41:18.893Z,4.90
2022-07-28T09:43:49.838Z,4.43
2022-07-28T09:46:23.248Z,3.97
2022-07-28T09:48:50.248Z,3.13
2022-07-28T09:51:22.576Z,3.70
2022-07-28T09:53:49.945Z,3.00
2022-07-28T09:56:17.328Z,3.10
2022-07-28T09:58:53.958Z,3.73
2022-07-28T10:01:21.719Z,2.60
2022-07-28T10:03:57.658Z,3.30
2022-07-28T10:06:34.240Z,3.30
2022-07-28T10:09:03.801Z,3.40
2022-07-28T10:11:31.195Z,3.70
2022-07-28T10:14:03.112Z,3.13
2022-07-28T10:16:53.432Z,2.80
2022-07-28T10:19:20.211Z,3.27
2022-07-28T10:21:49.317Z,3.33
2022-07-28T10:24:23.369Z,3.33
2022-07-28T10:26:52.596Z,3.60
2022-07-28T10:29:22.448Z,2.80
2022-07-28T10:31:52.618Z,2.97
2022-07-28T10:34:24.738Z,2.67
2022-07-28T10:36:54.936Z,2.30
2022-07-28T10:39:25.331Z,2.10
2022-07-28T10:41:53.053Z,2.50
2022-07-28T10:44:20.120Z,2.60
2022-07-28T10:46:47.193Z,2.50
2022-07-28T10:49:14.857Z,2.73
2022-07-28T10:52:06.546Z,2.67
2022-07-28T10:54:48.885Z,2.70
2022-07-28T10:57:16.553Z,2.27
2022-07-28T11:00:00.716Z,2.80
2022-07-28T11:02:46.029Z,1.93
2022-07-28T11:05:36.371Z,2.50
2022-07-28T11:08:15.276Z,1.90
2022-07-28T11:10:45.056Z,2.37
2022-07-28T11:13:32.939Z,2.20
2022-07-28T11:16:15.698Z,2.57
2022-07-28T11:19:36.825Z,2.40
2022-07-28T11:22:14.676Z,2.20
2022-07-28T11:24:57.004Z,2.63
2022-07-28T11:27:40.300Z,2.00
2022-07-28T11:30:08.417Z,2.20
2022-07-28T11:32:56.724Z,2.40
2022-07-28T11:35:27.947Z,2.33
2022-07-28T11:38:00.692Z,2.30
2022-07-28T11:40:44.762Z,2.67
2022-07-28T11:43:33.364Z,2.40
2022-07-28T11:46:10.170Z,2.07
2022-07-28T11:48:44.652Z,2.17
2022-07-28T11:51:12.872Z,2.40
2022-07-28T11:53:45.647Z,2.70
2022-07-28T11:56:13.760Z,2.07
2022-07-28T11:58:41.885Z,2.10
2022-07-28T12:01:17.838Z,2.10
2022-07-28T12:03:56.190Z,2.27
2022-07-28T12:06:35.364Z,2.73
2022-07-28T12:09:07.273Z,2.00
2022-07-28T12:11:38.804Z,2.80
2022-07-28T12:14:15.959Z,2.90
2022-07-28T12:16:45.321Z,2.47
2022-07-28T12:19:16.090Z,2.30
2022-07-28T12:21:49.079Z,2.40
2022-07-28T12:24:27.784Z,2.20
2022-07-28T12:26:55.445Z,1.97
2022-07-28T12:29:23.614Z,2.10
2022-07-28T12:31:59.566Z,2.97
2022-07-28T12:34:28.835Z,2.23
2022-07-28T12:36:58.557Z,2.43
2022-07-28T12:39:26.077Z,2.30
2022-07-28T12:42:06.929Z,2.40
2022-07-28T12:44:37.611Z,2.20
2022-07-28T12:47:07.783Z,2.47
2022-07-28T12:49:35.860Z,2.40
2022-07-28T12:52:22.991Z,2.43
2022-07-28T12:54:54.925Z,2.60
2022-07-28T12:57:49.828Z,2.77
2022-07-28T13:00:23.928Z,2.20
2022-07-28T13:02:55.980Z,2.37
2022-07-28T13:05:58.156Z,2.53
2022-07-28T13:08:27.198Z,2.73
2022-07-28T13:10:57.455Z,2.13
2022-07-28T13:13:27.019Z,2.17
2022-07-28T13:16:30.206Z,2.10
2022-07-28T13:19:02.240Z,1.80
2022-07-28T13:21:56.953Z,2.73
2022-07-28T13:24:28.239Z,2.20
2022-07-28T13:26:55.824Z,2.40
2022-07-28T13:29:23.020Z,2.30
2022-07-28T13:31:51.028Z,2.53
2022-07-28T13:34:20.835Z,3.00
2022-07-28T13:36:47.550Z,2.30
2022-07-28T13:39:14.456Z,2.10
2022-07-28T13:41:57.021Z,2.50
2022-07-28T13:44:30.308Z,2.53
2022-07-28T13:46:59.236Z,2.47
2022-07-28T13:49:27.758Z,2.00
2022-07-28T13:51:54.775Z,2.33
2022-07-28T13:54:21.553Z,2.20
2022-07-28T13:57:07.210Z,2.43
2022-07-28T13:59:35.473Z,2.60
2022-07-28T14:02:04.824Z,2.50
2022-07-28T14:04:31.662Z,2.77
2022-07-28T14:06:59.468Z,2.53
2022-07-28T14:09:26.198Z,3.03
2022-07-28T14:11:53.756Z,2.50
2022-07-28T14:14:25.251Z,2.30
2022-07-28T14:16:54.438Z,2.37
2022-07-28T14:19:37.954Z,1.93
2022-07-28T14:22:13.661Z,1.93
2022-07-28T14:24:44.065Z,2.87
2022-07-28T14:27:13.582Z,2.70
2022-07-28T14:29:40.437Z,2.47
2022-07-28T14:32:07.190Z,2.43
2022-07-28T14:34:34.580Z,2.43
2022-07-28T14:37:05.768Z,2.73
2022-07-28T14:39:37.004Z,2.50
2022-07-28T14:42:04.561Z,2.33
2022-07-28T14:44:31.225Z,2.40
2022-07-28T14:46:58.136Z,2.30
2022-07-28T14:49:24.963Z,2.60
2022-07-28T14:51:51.794Z,2.80
2022-07-28T14:54:19.049Z,3.00
2022-07-28T14:56:45.982Z,2.40
2022-07-28T14:59:12.613Z,2.57
2022-07-28T15:01:39.500Z,2.30
2022-07-28T15:04:06.243Z,2.43
2022-07-28T15:06:32.928Z,3.77
2022-07-28T15:09:00.831Z,3.87
2022-07-28T15:11:27.503Z,2.73
2022-07-28T15:13:54.206Z,2.63
2022-07-28T15:16:20.960Z,3.03
2022-07-28T15:18:47.645Z,2.50
2022-07-28T15:21:17.303Z,2.73
2022-07-28T15:23:45.100Z,2.53
2022-07-28T15:26:11.869Z,2.73
2022-07-28T15:28:39.160Z,2.20
2022-07-28T15:31:08.382Z,2.60
2022-07-28T15:33:47.740Z,2.60
2022-07-28T15:36:15.660Z,2.33
2022-07-28T15:38:47.075Z,2.90
2022-07-28T15:41:15.221Z,3.73
2022-07-28T15:43:42.183Z,3.17
2022-07-28T15:46:11.177Z,2.53
2022-07-28T15:48:41.146Z,2.53
2022-07-28T15:51:08.073Z,2.80
2022-07-28T15:53:35.683Z,2.33
2022-07-28T15:56:04.167Z,2.20
2022-07-28T15:58:30.907Z,2.23
2022-07-28T16:01:00.925Z,2.70
2022-07-28T16:03:29.843Z,2.33
2022-07-28T16:05:57.117Z,2.60
2022-07-28T16:08:23.926Z,2.10
2022-07-28T16:10:52.820Z,2.63
2022-07-28T16:13:31.180Z,3.00
2022-07-28T16:16:07.728Z,1.83
2022-07-28T16:18:36.461Z,3.40
2022-07-28T16:21:03.722Z,2.70
2022-07-28T16:23:30.397Z,2.20
2022-07-28T16:25:57.083Z,2.43
2022-07-28T16:28:23.840Z,2.90
2022-07-28T16:30:50.754Z,2.17
2022-07-28T16:33:17.450Z,2.60
2022-07-28T16:35:44.425Z,2.87
2022-07-28T16:38:11.797Z,2.93
2022-07-28T16:40:38.925Z,2.30
2022-07-28T16:43:06.913Z,2.57
2022-07-28T16:45:35.395Z,2.70
2022-07-28T16:48:03.723Z,2.37
2022-07-28T16:50:31.942Z,2.90
2022-07-28T16:52:59.424Z,2.53
2022-07-28T16:55:26.526Z,2.77
2022-07-28T16:57:53.839Z,2.43
2022-07-28T17:00:21.478Z,2.53
2022-07-28T17:02:48.168Z,2.50
2022-07-28T17:05:14.984Z,2.30
2022-07-28T17:07:46.064Z,2.70
2022-07-28T17:10:15.252Z,2.30
2022-07-28T17:12:50.197Z,2.50
2022-07-28T17:15:19.975Z,2.30
2022-07-28T17:17:49.762Z,2.43
2022-07-28T17:20:17.235Z,2.10
2022-07-28T17:22:45.045Z,3.10
2022-07-28T17:25:43.604Z,2.60
2022-07-28T17:27:59.165Z,3.00
2022-07-28T17:30:26.099Z,2.47
2022-07-28T17:32:58.080Z,2.20
2022-07-28T17:35:34.563Z,2.90
2022-07-28T17:38:03.627Z,2.40
2022-07-28T17:40:30.666Z,3.33
2022-07-28T17:42:57.532Z,2.47
2022-07-28T17:45:24.391Z,2.40
2022-07-28T17:47:51.708Z,2.30
2022-07-28T17:50:18.610Z,3.00
2022-07-28T17:52:46.349Z,2.30
2022-07-28T17:55:35.683Z,3.13
2022-07-28T17:58:32.143Z,2.20
2022-07-28T18:01:09.519Z,2.37
2022-07-28T18:03:58.979Z,2.60
2022-07-28T18:06:33.819Z,2.60
2022-07-28T18:09:03.741Z,2.73
2022-07-28T18:11:33.987Z,1.97
2022-07-28T18:14:04.508Z,2.20
2022-07-28T18:16:35.154Z,2.70
2022-07-28T18:19:03.333Z,2.70
2022-07-28T18:21:30.154Z,2.27
2022-07-28T18:23:56.801Z,2.47
2022-07-28T18:26:23.585Z,2.80
2022-07-28T18:28:50.470Z,2.30
2022-07-28T18:31:17.307Z,2.37
2022-07-28T18:33:44.126Z,2.57
2022-07-28T18:36:10.898Z,2.57
2022-07-28T18:38:37.571Z,2.80
2022-07-28T18:41:04.312Z,2.40
2022-07-28T18:43:31.214Z,2.27
2022-07-28T18:45:58.028Z,2.67
2022-07-28T18:48:25.684Z,2.50
2022-07-28T18:50:52.605Z,2.20
2022-07-28T18:53:19.661Z,2.50
2022-07-28T18:55:46.526Z,2.70
2022-07-28T18:58:13.212Z,2.00
2022-07-28T19:00:39.992Z,2.77
2022-07-28T19:03:06.833Z,3.03
2022-07-28T19:05:36.923Z,2.23
2022-07-28T19:08:04.802Z,3.33
2022-07-28T19:10:32.410Z,3.07
2022-07-28T19:12:59.763Z,3.10
2022-07-28T19:15:26.612Z,2.30
2022-07-28T19:18:11.181Z,2.47
2022-07-28T19:20:40.034Z,2.83
2022-07-28T19:23:07.033Z,2.57
2022-07-28T19:25:36.100Z,3.67
2022-07-28T19:28:04.243Z,2.17
2022-07-28T19:30:32.417Z,2.63
2022-07-28T19:32:59.637Z,2.53
2022-07-28T19:35:26.585Z,2.30
2022-07-28T19:37:53.409Z,2.80
2022-07-28T19:40:20.261Z,2.63
2022-07-28T19:42:48.571Z,2.57
2022-07-28T19:45:15.737Z,2.53
2022-07-28T19:47:42.744Z,2.23
2022-07-28T19:50:09.848Z,2.33
2022-07-28T19:52:37.401Z,3.13
2022-07-28T19:55:06.183Z,2.60
2022-07-28T19:57:33.419Z,2.70
2022-07-28T20:00:02.127Z,2.40
2022-07-28T20:02:45.536Z,2.23
2022-07-28T20:05:30.908Z,2.43
2022-07-28T20:08:14.710Z,3.97
2022-07-28T20:10:56.106Z,2.50
2022-07-28T20:13:38.626Z,2.40
2022-07-28T20:16:31.819Z,2.40
2022-07-28T20:19:05.790Z,2.70
2022-07-28T20:21:39.786Z,2.47
2022-07-28T20:24:13.474Z,3.07
2022-07-28T20:26:55.487Z,2.90
2022-07-28T20:29:36.429Z,2.90
2022-07-28T20:32:22.358Z,2.63
2022-07-28T20:34:57.373Z,3.00
2022-07-28T20:37:35.722Z,2.30
2022-07-28T20:40:34.314Z,2.40
2022-07-28T20:43:03.601Z,2.77
2022-07-28T20:45:36.415Z,2.83
2022-07-28T20:48:06.502Z,2.70
2022-07-28T20:50:42.246Z,2.63
2022-07-28T20:53:13.658Z,2.63
2022-07-28T20:55:43.792Z,2.47
2022-07-28T20:58:14.580Z,1.93
2022-07-28T21:00:45.512Z,2.20
2022-07-28T21:03:20.148Z,3.27
2022-07-28T21:06:02.025Z,2.03
2022-07-28T21:08:42.278Z,2.47
2022-07-28T21:11:19.863Z,2.40
2022-07-28T21:14:05.648Z,2.43
2022-07-28T21:16:41.373Z,2.07
2022-07-28T21:19:24.745Z,3.23
2022-07-28T21:21:53.391Z,2.90
2022-07-28T21:24:40.891Z,2.10
2022-07-28T21:27:20.628Z,2.43
2022-07-28T21:32:35.206Z,2.70
2022-07-28T21:35:14.172Z,2.03
2022-07-28T21:37:44.815Z,2.60
2022-07-28T21:40:14.137Z,2.30
2022-07-28T21:42:45.677Z,2.50
2022-07-28T21:45:15.981Z,2.50
2022-07-28T21:48:03.632Z,2.90
2022-07-28T21:50:40.147Z,2.50
2022-07-28T21:53:15.311Z,2.57
2022-07-28T21:55:50.943Z,2.60
2022-07-28T21:58:23.041Z,2.60
2022-07-28T22:01:02.625Z,2.07
2022-07-28T22:03:30.483Z,2.33
2022-07-28T22:05:58.340Z,2.63
2022-07-28T22:08:30.957Z,2.43
2022-07-28T22:11:08.300Z,2.00
2022-07-28T22:13:43.196Z,2.23
2022-07-28T22:16:13.237Z,3.17
2022-07-28T22:18:45.344Z,2.30
2022-07-28T22:21:13.023Z,2.80
2022-07-28T22:23:42.980Z,2.47
2022-07-28T22:26:26.110Z,2.77
2022-07-28T22:29:05.032Z,2.67
2022-07-28T22:31:38.825Z,2.30
2022-07-28T22:34:10.190Z,2.03
2022-07-28T22:36:43.486Z,2.43
2022-07-28T22:39:14.443Z,2.30
2022-07-28T22:41:47.405Z,2.33
2022-07-28T22:44:27.762Z,2.57
2022-07-28T22:47:01.888Z,2.60
2022-07-28T22:49:36.912Z,2.90
2022-07-28T22:52:04.949Z,2.90
2022-07-28T22:54:45.081Z,2.50
2022-07-28T22:57:16.182Z,2.87
2022-07-28T22:59:55.630Z,2.47
2022-07-28T23:02:26.929Z,2.50
2022-07-28T23:05:06.816Z,2.67
2022-07-28T23:07:53.148Z,1.93
2022-07-28T23:10:28.926Z,2.70
2022-07-28T23:15:50.420Z,2.40
2022-07-28T23:18:24.762Z,2.50
2022-07-28T23:21:00.872Z,2.63
2022-07-28T23:23:38.375Z,2.87
2022-07-28T23:26:33.069Z,3.00
2022-07-28T23:29:24.098Z,2.43
2022-07-28T23:31:58.736Z,2.90
2022-07-28T23:34:50.840Z,3.50
2022-07-28T23:37:33.349Z,2.80
2022-07-28T23:40:06.232Z,3.00
2022-07-28T23:42:38.357Z,3.23
2022-07-28T23:45:10.566Z,2.47
2022-07-28T23:47:42.939Z,2.30
2022-07-28T23:50:14.347Z,2.97
2022-07-28T23:52:44.313Z,2.90
2022-07-28T23:55:16.164Z,2.80
2022-07-28T23:57:53.863Z,2.60
